Latest Coastal Weather Observations for Darwin Airport

IDD60701

Issued at 7:01 pm CST Sunday 24 May 2015 (issued every 10 minutes, with the page automatically refreshed every 10 minutes)

About coastal observations | Map of coastal stations | Coastal observations for NT | Marine services | Other Formats
Station Details ID: 014015 Name: DARWIN AIRPORT Lat: -12.42 Lon: 130.89 Height: 30.4 m
Data from the previous 72 hours. | See also: Recent months at Darwin Airport
Date/Time
CST
Temp

°C
Wind Pressure Rain
since 9am
mm
Weather Cloud Vis
km
Sea
Height
m
Swell
Dir
 
Speed
knots
Gust
knots
hPa Trend Height
m
Period
s
Dir
24/07:00pm 24.9 N 6 7 1013.8 - 0.0 - - 10 - - - -
24/06:30pm 26.5 N 5 6 1013.5 - 0.0 - - 10 - - - -
24/06:00pm 28.0 N 7 8 1013.0 R 0.0 Smoke Mostly clear 25 - - - -
24/05:30pm 29.1 NNW 8 10 1012.9 - 0.0 - - 10 - - - -
24/05:00pm 29.5 NNW 9 11 1012.6 - 0.0 - - 10 - - - -
24/04:30pm 31.0 NW 11 15 1012.6 - 0.0 - - 10 - - - -
24/04:00pm 31.7 E 7 9 1012.4 - 0.0 - - 10 - - - -
24/03:30pm 31.8 ENE 10 14 1012.3 - 0.0 - - 10 - - - -
24/03:00pm 31.5 ENE 9 15 1012.3 R 0.0 Smoke Mostly clear 30 - - - -
24/02:30pm 31.0 E 7 11 1012.7 - 0.0 - - 10 - - - -
24/02:00pm 30.7 E 9 14 1012.9 - 0.0 - - 10 - - - -
24/01:30pm 30.7 E 10 14 1013.4 - 0.0 - - 10 - - - -
24/01:00pm 30.4 E 11 16 1014.0 - 0.0 - - 10 - - - -
24/12:30pm 29.5 E 12 18 1014.4 - 0.0 - - 10 - - - -
24/12:00pm 28.7 ESE 11 14 1014.6 F 0.0 Smoke Clear 30 - - - -
24/11:30am 28.3 E 17 22 1015.0 - 0.0 - - 10 - - - -
24/11:00am 27.7 ESE 14 19 1015.5 - 0.0 - - 10 - - - -
24/10:00am 25.7 SE 11 15 1015.9 - 0.0 - - 10 - - - -
24/09:30am 23.9 SE 11 15 1016.1 - 0.0 - - 10 - - - -
24/09:00am 22.8 SE 11 14 1015.9 R 0.0 Smoke Clear 30 - - - -
24/08:30am 21.9 SE 10 13 1015.8 - 0.0 - - 10 - - - -
24/08:00am 20.6 SE 9 11 1015.6 - 0.0 - - 10 - - - -
24/07:30am 20.1 SSE 9 12 1015.1 - 0.0 - - 10 - - - -
24/07:00am 19.9 SE 7 8 1014.8 - 0.0 - - 10 - - - -
24/06:30am 20.7 SE 8 11 1014.6 - 0.0 - - 10 - - - -
24/06:00am 21.9 ESE 9 11 1014.1 F 0.0 Smoke Clear 30 - - - -
24/05:30am 21.1 ESE 7 8 1014.2 - 0.0 - - 10 - - - -
24/05:00am 21.3 ESE 6 8 1014.3 - 0.0 - - 10 - - - -
24/04:30am 21.3 ESE 7 7 1014.4 - 0.0 - - 10 - - - -
24/04:00am 21.2 ESE 7 8 1014.4 - 0.0 - - 10 - - - -
24/03:30am 20.2 E 6 7 1014.4 - 0.0 - - 10 - - - -
24/03:00am 21.0 ESE 6 6 1014.2 R 0.0 Fine Clear 30 - - - -
24/02:30am 22.3 ESE 6 9 1014.6 - 0.0 - - 10 - - - -
24/02:00am 21.2 ESE 6 7 1014.6 - 0.0 - - 10 - - - -
24/01:30am 21.5 ESE 4 5 1014.8 - 0.0 - - 10 - - - -
24/01:00am 21.7 NE 4 5 1015.0 - 0.0 - - 10 - - - -
24/12:30am 22.5 ESE 6 7 1015.1 - 0.0 - - 10 - - - -
 
Date/Time
CST
Temp

°C
Wind Pressure Rain
since 9am
mm
Weather Cloud Vis
km
Sea
Height
m
Swell
Dir
 
Speed
knots
Gust
knots
hPa Trend Height
m
Period
s
Dir
23/11:30pm 23.2 WSW 4 5 1014.9 - 0.0 - - 10 - - - -
23/11:00pm 24.1 WSW 5 6 1014.8 - 0.0 - - 10 - - - -
23/10:30pm 24.3 WSW 6 6 1014.8 - 0.0 - - 10 - - - -
23/10:00pm 24.7 WSW 5 5 1014.7 - 0.0 - - 10 - - - -
23/09:30pm 23.2 W 2 3 1014.4 - 0.0 - - 10 - - - -
23/09:00pm 23.6 WNW 3 4 1014.1 F 0.0 Fine Clear 30 - - - -
23/08:30pm 23.7 NNW 4 5 1014.1 - 0.0 - - 10 - - - -
23/08:00pm 25.0 WNW 4 5 1013.7 - 0.0 - - 10 - - - -
23/07:30pm 25.3 N 5 6 1013.4 - 0.0 - - 10 - - - -
23/07:00pm 26.3 NNW 5 6 1013.1 - 0.0 - - 10 - - - -
23/06:30pm 27.1 N 7 9 1012.8 - 0.0 - - 10 - - - -
23/06:00pm 28.0 N 9 11 1012.4 F 0.0 Smoke Clear 30 - - - -
23/05:30pm 28.9 N 10 12 1012.4 - 0.0 - - 10 - - - -
23/05:00pm 30.0 NNW 9 11 1012.2 - 0.0 - - 10 - - - -
23/04:30pm 30.9 NNW 12 16 1012.1 - 0.0 - - 10 - - - -
23/04:00pm 32.4 ENE 9 14 1012.0 - 0.0 - - 10 - - - -
23/03:30pm 32.9 ENE 7 8 1012.1 - 0.0 - - 10 - - - -
23/03:00pm 32.5 ESE 10 15 1012.3 F 0.0 Smoke Clear 30 - - - -
23/02:30pm 32.9 SE 10 13 1012.8 - 0.0 - - 10 - - - -
23/02:00pm 32.1 ESE 10 16 1013.3 - 0.0 - - 10 - - - -
23/01:30pm 31.8 E 12 17 1013.8 - 0.0 - - 10 - - - -
23/01:00pm 31.6 ESE 11 15 1014.2 - 0.0 - - 10 - - - -
23/12:30pm 30.7 SE 13 16 1014.8 - 0.0 - - 10 - - - -
23/12:00pm 30.0 SE 12 15 1015.2 F 0.0 Smoke Mostly clear 30 - - - -
23/11:30am 29.3 SE 12 17 1015.8 - 0.0 - - 10 - - - -
23/11:00am 27.9 ESE 15 19 1016.2 - 0.0 - - 10 - - - -
23/10:30am 27.2 E 17 22 1016.8 - 0.0 - - 10 - - - -
23/10:00am 26.7 ESE 17 23 1016.8 - 0.0 - - 10 - - - -
23/09:30am 26.4 ESE 14 21 1016.8 - 0.0 - - 10 - - - -
23/09:00am 24.5 ESE 13 17 1016.7 F 0.0 Fine Clear 30 - - - -
23/08:30am 23.5 SE 12 16 1016.6 - 0.0 - - 10 - - - -
23/08:00am 22.6 SE 13 17 1016.5 - 0.0 - - 10 - - - -
23/07:30am 21.9 SE 9 12 1016.2 - 0.0 - - 10 - - - -
23/07:00am 21.6 SE 8 10 1015.9 - 0.0 - - 10 - - - -
23/06:30am 22.6 ESE 8 9 1015.6 - 0.0 - - 10 - - - -
23/06:00am 22.5 ESE 9 10 1015.2 R 0.0 Smoke Mostly clear 25 - - - -
23/05:30am 22.6 SE 8 9 1015.3 - 0.0 - - 10 - - - -
23/05:00am 22.9 ESE 8 9 1015.1 - 0.0 - - 10 - - - -
23/04:30am 23.7 ESE 8 10 1015.1 - 0.0 - - 10 - - - -
23/04:00am 23.7 SE 8 10 1015.0 - 0.0 - - 10 - - - -
23/03:30am 23.6 SE 7 8 1015.0 - 0.0 - - 10 - - - -
23/03:00am 24.1 SE 8 10 1014.9 R 0.0 Smoke Mostly clear 25 - - - -
23/02:30am 24.0 SE 6 8 1015.1 - 0.0 - - 10 - - - -
23/02:00am 24.0 SE 5 6 1014.9 - 0.0 - - 10 - - - -
23/01:30am 24.3 SSE 5 7 1015.0 - 0.0 - - 10 - - - -
23/01:00am 24.5 SE 5 5 1015.1 - 0.0 - - 10 - - - -
23/12:30am 24.7 SSE 5 6 1015.3 - 0.0 - - 10 - - - -
23/12:00am 24.9 S 5 6 1015.3 R 0.0 Smoke Mostly clear 30 - - - -
 
Date/Time
CST
Temp

°C
Wind Pressure Rain
since 9am
mm
Weather Cloud Vis
km
Sea
Height
m
Swell
Dir
 
Speed
knots
Gust
knots
hPa Trend Height
m
Period
s
Dir
22/11:30pm 25.5 S 7 7 1015.9 - 0.0 - - 10 - - - -
22/11:00pm 25.6 S 7 7 1015.9 - 0.0 - Partly cloudy 10 - - - -
22/10:30pm 25.8 S 5 6 1015.8 - 0.0 - - 10 - - - -
22/10:00pm 25.8 SSW 6 8 1015.8 - 0.0 - Partly cloudy 10 - - - -
22/09:30pm 26.2 SW 5 7 1015.5 - 0.0 - - 10 - - - -
22/09:00pm 25.4 WSW 3 4 1015.0 S 0.0 Smoke Mostly clear 30 - - - -
22/08:30pm 26.7 W 5 6 1015.0 - 0.0 - Partly cloudy 10 - - - -
22/08:00pm 26.7 WSW 3 4 1014.8 - 0.0 - Partly cloudy 10 - - - -
22/07:30pm 27.4 NNE 3 5 1014.3 - 0.0 - - 10 - - - -
22/07:00pm 27.9 NNE 6 7 1013.9 - 0.0 - - 10 - - - -
22/06:30pm 28.5 NNE 7 10 1013.6 - 0.0 - - 10 - - - -
22/06:00pm 29.5 N 7 9 1013.1 S 0.0 Smoke Mostly clear 30 - - - -
22/05:30pm 30.2 N 7 9 1013.2 - 0.0 - Mostly clear 10 - - - -
22/05:00pm 29.9 NNW 9 11 1013.1 - 0.0 - Mostly clear 10 - - - -
22/04:30pm 30.1 NNW 11 14 1013.0 - 0.0 - Partly cloudy 10 - - - -
22/04:00pm 29.6 N 11 13 1012.9 - 0.0 - Partly cloudy 10 - - - -
22/03:30pm 31.6 WNW 13 15 1013.1 - 0.0 - Partly cloudy 10 - - - -
22/03:00pm 32.8 E 13 18 1012.8 R 0.0 Smoke Mostly clear 25 - - - -
22/02:30pm 32.9 ENE 13 18 1013.3 - 0.0 - - 10 - - - -
22/02:00pm 32.1 E 14 20 1013.6 - 0.0 - Partly cloudy 10 - - - -
22/01:30pm 30.8 ESE 11 16 1014.0 - 0.0 - Mostly clear 10 - - - -
22/01:00pm 32.0 E 12 19 1014.3 - 0.0 - Mostly clear 10 - - - -
22/12:30pm 30.7 E 14 20 1014.7 - 0.0 - Mostly clear 10 - - - -
22/12:00pm 30.1 E 12 17 1015.0 S 0.0 Fine Mostly clear 30 - - - -
22/11:30am 30.1 E 13 17 1015.8 - 0.0 - Mostly clear 10 - - - -
22/11:00am 30.1 E 11 16 1015.8 - 0.0 - Mostly clear 10 - - - -
22/10:30am 29.0 ENE 9 13 1016.2 - 0.0 - Mostly clear 10 - - - -
22/10:00am 28.6 ENE 10 18 1016.4 - 0.0 - Partly cloudy 10 - - - -
22/09:30am 27.3 ENE 8 11 1016.1 - 0.0 - Mostly clear 10 - - - -
22/09:00am 27.5 E 6 8 1015.8 F 0.0 Fine Mostly clear 30 - - - -
22/08:30am 26.7 E 5 7 1016.0 - 0.0 - Mostly clear 10 - - - -
22/08:00am 25.4 E 4 5 1015.8 - 0.0 - Mostly clear 10 - - - -
22/07:30am 23.4 E 5 6 1015.6 - 0.0 - Mostly clear 10 - - - -
22/07:00am 22.6 E 4 5 1015.6 - 0.0 - Mostly clear 10 - - - -
22/06:30am 22.7 ESE 3 4 1015.4 - 0.0 Fog patches Mostly clear 10 - - - -
22/06:00am 22.8 ESE 3 4 1015.0 F 0.0 Fine Mostly clear 30 - - - -
22/05:30am 23.1 ESE 3 4 1015.3 - 0.0 - Mostly clear 10 - - - -
22/05:00am 23.3 ESE 4 5 1015.3 - 0.0 - Mostly clear 10 - - - -
22/04:30am 23.1 E 3 5 1015.4 - 0.0 - Mostly clear 10 - - - -
22/04:00am 23.4 CALM 0 0 1015.3 - 0.0 - Mostly clear 10 - - - -
22/03:30am 23.5 E 3 4 1015.3 - 0.0 - Mostly clear 10 - - - -
22/03:00am 23.2 E 5 5 1015.0 R 0.0 Fine Mostly clear 30 - - - -
22/02:30am 23.3 E 5 5 1015.1 - 0.0 - - 10 - - - -
22/02:00am 23.3 ENE 3 5 1015.0 - 0.0 - - 10 - - - -
22/01:30am 23.6 E 3 4 1015.3 - 0.0 - - 10 - - - -
22/01:00am 23.7 ESE 4 4 1015.5 - 0.0 - - 10 - - - -
22/12:30am 24.0 SE 3 4 1015.6 - 0.0 - - 10 - - - -
22/12:00am 23.9 ESE 4 4 1015.5 R 0.0 Smoke Clear 20 - - - -
 
Date/Time
CST
Temp

°C
Wind Pressure Rain
since 9am
mm
Weather Cloud Vis
km
Sea
Height
m
Swell
Dir
 
Speed
knots
Gust
knots
hPa Trend Height
m
Period
s
Dir
21/11:30pm 24.1 ESE 4 4 1015.7 - 0.0 - - 10 - - - -
21/11:00pm 24.3 ESE 5 5 1015.5 - 0.0 - - 10 - - - -
21/10:30pm 24.5 S 4 5 1015.3 - 0.0 - - 10 - - - -
21/10:00pm 25.0 SSW 2 4 1015.3 - 0.0 - - 10 - - - -
21/09:30pm 25.8 WSW 4 5 1015.0 - 0.0 - - 10 - - - -
21/09:00pm 26.5 SSW 4 5 1014.7 F 0.0 Fine Mostly clear 30 - - - -
21/08:30pm 27.2 SW 5 6 1014.6 - 0.0 - Partly cloudy 10 - - - -
21/08:00pm 27.0 W 5 5 1014.0 - 0.0 - Partly cloudy 10 - - - -
21/07:30pm 27.1 N 6 8 1013.5 - 0.0 - Mostly clear 10 - - - -

Other Formats:

Comma delimited format used in spreadsheet applications
http://www.bom.gov.au/fwo/IDD60701/IDD60701.94120.axf

JavaScript Object Notation format (JSON) in row-major order
http://www.bom.gov.au/fwo/IDD60701/IDD60701.94120.json